createdAt,value
2022-12-24T00:01:25.107Z,11.60
2022-12-24T00:03:53.415Z,11.60
2022-12-24T00:06:22.906Z,11.60
2022-12-24T00:08:52.126Z,11.50
2022-12-24T00:11:20.592Z,11.60
2022-12-24T00:13:49.104Z,11.60
2022-12-24T00:16:17.620Z,11.60
2022-12-24T00:18:47.462Z,11.60
2022-12-24T00:21:16.287Z,11.60
2022-12-24T00:23:44.774Z,11.60
2022-12-24T00:26:13.306Z,11.60
2022-12-24T00:28:41.958Z,11.70
2022-12-24T00:31:11.652Z,11.60
2022-12-24T00:33:40.249Z,11.60
2022-12-24T00:36:10.729Z,11.60
2022-12-24T00:38:39.389Z,11.60
2022-12-24T00:41:24.675Z,11.60
2022-12-24T00:43:53.801Z,11.60
2022-12-24T00:46:22.231Z,11.60
2022-12-24T00:48:50.650Z,11.60
2022-12-24T00:51:20.849Z,11.60
2022-12-24T00:53:49.562Z,11.50
2022-12-24T00:56:17.999Z,11.50
2022-12-24T00:58:46.394Z,11.40
2022-12-24T01:01:14.939Z,11.40
2022-12-24T01:03:43.679Z,11.30
2022-12-24T01:06:13.058Z,11.30
2022-12-24T01:08:43.309Z,11.30
2022-12-24T01:11:12.209Z,11.30
2022-12-24T01:13:40.667Z,11.30
2022-12-24T01:16:15.257Z,11.30
2022-12-24T01:18:43.742Z,11.20
2022-12-24T01:21:12.090Z,11.30
2022-12-24T01:23:40.512Z,11.30
2022-12-24T01:26:12.207Z,11.30
2022-12-24T01:28:40.699Z,11.30
2022-12-24T01:31:12.071Z,11.40
2022-12-24T01:33:40.525Z,11.40
2022-12-24T01:36:09.175Z,11.50
2022-12-24T01:38:37.541Z,11.50
2022-12-24T01:41:23.561Z,11.40
2022-12-24T01:43:53.230Z,11.30
2022-12-24T01:46:23.710Z,11.30
2022-12-24T01:48:54.341Z,11.20
2022-12-24T01:51:25.483Z,11.20
2022-12-24T01:53:56.349Z,11.20
2022-12-24T01:56:25.101Z,11.20
2022-12-24T01:58:56.710Z,11.20
2022-12-24T02:01:25.227Z,11.30
2022-12-24T02:03:53.990Z,11.30
2022-12-24T02:06:23.126Z,11.20
2022-12-24T02:08:51.571Z,11.20
2022-12-24T02:11:20.765Z,11.20
2022-12-24T02:13:50.481Z,11.20
2022-12-24T02:16:25.788Z,11.20
2022-12-24T02:18:57.959Z,11.20
2022-12-24T02:21:44.725Z,11.20
2022-12-24T02:24:30.650Z,11.30
2022-12-24T02:27:12.504Z,11.30
2022-12-24T02:30:00.376Z,11.30
2022-12-24T02:32:33.530Z,11.40
2022-12-24T02:35:05.777Z,11.30
2022-12-24T02:37:35.865Z,11.30
2022-12-24T02:40:15.743Z,11.30
2022-12-24T02:42:46.662Z,11.30
2022-12-24T02:45:17.167Z,11.30
2022-12-24T02:47:46.526Z,11.30
2022-12-24T02:50:15.590Z,11.40
2022-12-24T02:52:45.166Z,11.50
2022-12-24T02:55:15.481Z,11.50
2022-12-24T02:57:49.638Z,11.50
2022-12-24T03:00:20.825Z,11.50
2022-12-24T03:02:54.012Z,11.50
2022-12-24T03:05:26.595Z,11.50
2022-12-24T03:07:58.500Z,11.50
2022-12-24T03:10:30.632Z,11.60
2022-12-24T03:13:01.363Z,11.60
2022-12-24T03:15:32.452Z,11.60
2022-12-24T03:18:02.189Z,11.60
2022-12-24T03:20:33.552Z,11.60
2022-12-24T03:23:01.900Z,11.70
2022-12-24T03:25:30.617Z,11.60
2022-12-24T03:27:59.356Z,11.60
2022-12-24T03:30:28.088Z,11.60
2022-12-24T03:32:58.073Z,11.60
2022-12-24T03:35:26.772Z,11.60
2022-12-24T03:37:55.138Z,11.50
2022-12-24T03:40:23.597Z,11.50
2022-12-24T03:42:52.182Z,11.50
2022-12-24T03:45:20.579Z,11.60
2022-12-24T03:47:48.894Z,11.70
2022-12-24T03:50:18.752Z,11.90
2022-12-24T03:52:47.112Z,11.90
2022-12-24T03:55:15.516Z,11.90
2022-12-24T03:57:43.899Z,12.00
2022-12-24T04:00:12.837Z,12.00
2022-12-24T04:02:41.659Z,12.00
2022-12-24T04:05:12.822Z,12.00
2022-12-24T04:07:42.553Z,11.90
2022-12-24T04:10:11.530Z,11.90
2022-12-24T04:12:39.916Z,11.80
2022-12-24T04:15:08.852Z,11.80
2022-12-24T04:17:37.259Z,11.80
2022-12-24T04:20:06.130Z,11.80
2022-12-24T04:22:34.469Z,11.90
2022-12-24T04:25:04.236Z,11.90
2022-12-24T04:27:32.693Z,11.90
2022-12-24T04:30:01.088Z,11.90
2022-12-24T04:32:29.548Z,12.00
2022-12-24T04:34:57.872Z,12.00
2022-12-24T04:37:26.207Z,12.00
2022-12-24T04:39:54.561Z,12.10
2022-12-24T04:42:24.356Z,12.10
2022-12-24T04:44:52.831Z,12.00
2022-12-24T04:47:21.212Z,12.10
2022-12-24T04:49:50.579Z,12.00
2022-12-24T04:52:18.968Z,12.00
2022-12-24T04:54:47.350Z,12.10
2022-12-24T04:57:15.707Z,12.00
2022-12-24T04:59:45.439Z,12.00
2022-12-24T05:02:13.942Z,12.00
2022-12-24T05:04:42.665Z,12.00
2022-12-24T05:07:13.475Z,11.90
2022-12-24T05:09:41.822Z,11.90
2022-12-24T05:12:10.803Z,12.00
2022-12-24T05:14:40.282Z,12.00
2022-12-24T05:17:12.610Z,12.00
2022-12-24T05:19:41.064Z,12.10
2022-12-24T05:22:27.099Z,12.10
2022-12-24T05:25:12.625Z,12.20
2022-12-24T05:27:43.422Z,12.20
2022-12-24T05:30:15.953Z,12.30
2022-12-24T05:32:45.735Z,12.30
2022-12-24T05:35:14.152Z,12.30
2022-12-24T05:37:42.484Z,12.20
2022-12-24T05:40:11.231Z,12.20
2022-12-24T05:42:39.566Z,12.10
2022-12-24T05:45:08.736Z,12.00
2022-12-24T05:47:42.889Z,12.00
2022-12-24T05:50:13.292Z,12.00
2022-12-24T05:52:41.691Z,11.90
2022-12-24T05:55:10.578Z,11.90
2022-12-24T05:57:40.455Z,11.90
2022-12-24T06:00:09.434Z,11.90
2022-12-24T06:02:37.823Z,11.90
2022-12-24T06:05:06.704Z,11.90
2022-12-24T06:07:36.523Z,11.90
2022-12-24T06:10:05.081Z,11.90
2022-12-24T06:12:33.498Z,11.90
2022-12-24T06:15:02.104Z,11.90
2022-12-24T06:17:30.421Z,11.90
2022-12-24T06:19:58.754Z,11.90
2022-12-24T06:22:27.266Z,11.90
2022-12-24T06:24:57.023Z,11.80
2022-12-24T06:27:25.352Z,11.80
2022-12-24T06:29:53.714Z,11.70
2022-12-24T06:32:22.177Z,11.70
2022-12-24T06:34:50.556Z,11.70
2022-12-24T06:37:19.386Z,11.70
2022-12-24T06:39:47.726Z,11.60
2022-12-24T06:42:17.482Z,11.60
2022-12-24T06:44:45.793Z,11.60
2022-12-24T06:47:14.200Z,11.70
2022-12-24T06:49:42.476Z,11.60
2022-12-24T06:52:13.703Z,11.70
2022-12-24T06:54:42.091Z,11.70
2022-12-24T06:57:10.479Z,11.80
2022-12-24T06:59:40.219Z,12.00
2022-12-24T07:02:08.736Z,12.10
2022-12-24T07:04:37.230Z,12.20
2022-12-24T07:07:05.688Z,12.20
2022-12-24T07:09:33.975Z,12.30
2022-12-24T07:12:02.446Z,12.20
2022-12-24T07:14:30.937Z,12.30
2022-12-24T07:17:00.951Z,12.40
2022-12-24T07:19:29.464Z,12.30
2022-12-24T07:21:57.824Z,12.30
2022-12-24T07:24:26.284Z,12.30
2022-12-24T07:26:54.744Z,12.30
2022-12-24T07:29:23.219Z,12.30
2022-12-24T07:31:51.657Z,12.40
2022-12-24T07:34:21.417Z,12.50
2022-12-24T07:36:49.744Z,12.60
2022-12-24T07:39:18.080Z,12.70
2022-12-24T07:41:46.411Z,12.80
2022-12-24T07:44:14.887Z,12.90
2022-12-24T07:46:43.503Z,12.90
2022-12-24T07:49:12.040Z,13.00
2022-12-24T07:51:41.794Z,13.00
2022-12-24T07:54:13.150Z,13.10
2022-12-24T07:56:41.572Z,13.10
2022-12-24T07:59:12.397Z,13.20
2022-12-24T08:01:40.994Z,13.20
2022-12-24T08:04:09.632Z,13.20
2022-12-24T08:06:38.070Z,13.30
2022-12-24T08:09:07.830Z,13.30
2022-12-24T08:11:36.199Z,13.30
2022-12-24T08:14:04.608Z,13.40
2022-12-24T08:16:33.130Z,13.40
2022-12-24T08:19:02.262Z,13.50
2022-12-24T08:21:30.659Z,13.50
2022-12-24T08:23:58.971Z,13.50
2022-12-24T08:26:28.716Z,13.50
2022-12-24T08:28:58.994Z,13.60
2022-12-24T08:31:27.437Z,13.50
2022-12-24T08:33:55.941Z,13.50
2022-12-24T08:36:24.343Z,13.50
2022-12-24T08:38:52.666Z,13.50
2022-12-24T08:41:21.076Z,13.40
2022-12-24T08:43:50.932Z,13.40
2022-12-24T08:46:19.478Z,13.50
2022-12-24T08:48:47.837Z,13.60
2022-12-24T08:51:16.357Z,13.70
2022-12-24T08:53:44.785Z,13.80
2022-12-24T08:56:13.619Z,13.90
2022-12-24T08:58:41.996Z,14.10
2022-12-24T09:01:16.104Z,14.20
2022-12-24T09:03:45.177Z,14.40
2022-12-24T09:06:13.828Z,14.40
2022-12-24T09:08:43.804Z,14.50
2022-12-24T09:11:13.610Z,14.50
2022-12-24T09:13:42.345Z,14.60
2022-12-24T09:16:10.744Z,14.60
2022-12-24T09:18:40.821Z,14.70
2022-12-24T09:21:11.412Z,14.70
2022-12-24T09:23:40.712Z,14.70
2022-12-24T09:26:09.464Z,14.70
2022-12-24T09:28:37.977Z,14.70
2022-12-24T09:31:06.875Z,14.80
2022-12-24T09:33:36.191Z,14.80
2022-12-24T09:36:06.468Z,14.80
2022-12-24T09:38:34.933Z,14.90
2022-12-24T09:41:11.694Z,14.90
2022-12-24T09:43:40.477Z,15.10
2022-12-24T09:46:14.608Z,15.10
2022-12-24T09:48:45.028Z,15.10
2022-12-24T09:51:19.111Z,15.10
2022-12-24T09:53:51.320Z,15.20
2022-12-24T09:56:22.792Z,15.20
2022-12-24T09:58:54.244Z,15.30
2022-12-24T10:01:22.671Z,15.30
2022-12-24T10:03:51.078Z,15.40
2022-12-24T10:06:27.044Z,15.40
2022-12-24T10:09:03.587Z,15.50
2022-12-24T10:11:37.620Z,15.50
2022-12-24T10:14:13.128Z,15.60
2022-12-24T10:16:45.735Z,15.70
2022-12-24T10:19:17.560Z,15.70
2022-12-24T10:21:52.093Z,15.80
2022-12-24T10:24:23.453Z,16.00
2022-12-24T10:26:54.681Z,16.10
2022-12-24T10:29:26.049Z,16.20
2022-12-24T10:31:57.823Z,16.40
2022-12-24T10:34:28.128Z,16.50
2022-12-24T10:36:58.184Z,16.60
2022-12-24T10:39:27.233Z,16.50
2022-12-24T10:41:57.828Z,16.50
2022-12-24T10:44:28.156Z,16.50
2022-12-24T10:46:56.517Z,16.50
2022-12-24T10:49:31.204Z,16.60
2022-12-24T10:52:02.007Z,16.70
2022-12-24T10:54:34.492Z,16.70
2022-12-24T10:57:03.594Z,16.70
2022-12-24T10:59:32.764Z,16.80
2022-12-24T11:02:02.358Z,16.80
2022-12-24T11:04:31.714Z,16.80
2022-12-24T11:07:02.440Z,16.70
2022-12-24T11:09:31.898Z,16.70
2022-12-24T11:12:06.948Z,16.70
2022-12-24T11:14:38.297Z,16.80
2022-12-24T11:17:07.022Z,16.80
2022-12-24T11:19:36.674Z,16.80
2022-12-24T11:22:07.494Z,16.90
2022-12-24T11:24:36.819Z,16.90
2022-12-24T11:27:24.447Z,17.00
2022-12-24T11:29:52.909Z,16.90
2022-12-24T11:32:22.073Z,16.80
2022-12-24T11:34:50.818Z,16.90
2022-12-24T11:40:43.990Z,16.80
2022-12-24T11:43:16.270Z,16.90
2022-12-24T11:45:49.829Z,17.00
2022-12-24T11:48:28.601Z,17.00
2022-12-24T11:50:57.959Z,17.00
2022-12-24T11:53:28.263Z,17.00
2022-12-24T11:55:59.062Z,17.00
2022-12-24T11:58:29.855Z,17.00
2022-12-24T12:01:01.873Z,17.10
2022-12-24T12:03:32.079Z,17.10
2022-12-24T12:06:01.845Z,17.10
2022-12-24T12:08:31.254Z,17.20
2022-12-24T12:11:01.811Z,17.10
2022-12-24T12:13:38.048Z,17.10
2022-12-24T12:16:09.307Z,17.00
2022-12-24T12:18:39.587Z,16.90
2022-12-24T12:21:11.083Z,16.90
2022-12-24T12:23:42.965Z,16.80
2022-12-24T12:26:16.188Z,16.80
2022-12-24T12:28:47.102Z,16.80
2022-12-24T12:31:17.728Z,16.80
2022-12-24T12:33:48.764Z,16.70
2022-12-24T12:36:19.470Z,16.70
2022-12-24T12:38:49.050Z,16.70
2022-12-24T12:41:28.246Z,16.70
2022-12-24T12:44:11.912Z,16.70
2022-12-24T12:46:44.292Z,16.60
2022-12-24T12:49:19.889Z,16.50
2022-12-24T12:51:52.075Z,16.50
2022-12-24T12:54:27.404Z,16.40
2022-12-24T12:56:59.557Z,16.30
2022-12-24T12:59:32.952Z,16.30
2022-12-24T13:02:04.797Z,16.30
2022-12-24T13:04:48.508Z,16.20
2022-12-24T13:07:34.169Z,16.20
2022-12-24T13:10:16.350Z,16.10
2022-12-24T13:12:54.205Z,16.00
2022-12-24T13:15:52.475Z,15.90
2022-12-24T13:18:36.927Z,15.90
2022-12-24T13:21:05.835Z,15.90
2022-12-24T13:23:34.211Z,15.90
2022-12-24T13:26:11.134Z,15.90
2022-12-24T13:28:40.951Z,15.80
2022-12-24T13:31:31.547Z,15.80
2022-12-24T13:34:01.309Z,15.60
2022-12-24T13:36:44.489Z,15.50
2022-12-24T13:39:20.131Z,15.30
2022-12-24T13:41:51.139Z,15.20
2022-12-24T13:44:22.005Z,14.80
2022-12-24T13:46:52.119Z,14.60
2022-12-24T13:49:21.687Z,14.50
2022-12-24T13:51:51.147Z,14.30
2022-12-24T13:54:21.096Z,14.20
2022-12-24T13:56:49.629Z,14.10
2022-12-24T13:59:33.063Z,13.90
2022-12-24T14:02:05.443Z,13.80
2022-12-24T14:04:36.171Z,13.80
2022-12-24T14:07:05.117Z,13.70
2022-12-24T14:09:34.066Z,13.60
2022-12-24T14:12:16.981Z,13.60
2022-12-24T14:14:46.800Z,13.60
2022-12-24T14:17:16.307Z,13.50
2022-12-24T14:19:46.236Z,13.50
2022-12-24T14:22:21.732Z,13.30
2022-12-24T14:24:52.870Z,13.40
2022-12-24T14:27:25.627Z,13.40
2022-12-24T14:29:59.224Z,13.30
2022-12-24T14:32:34.807Z,13.30
2022-12-24T14:35:06.598Z,13.30
2022-12-24T14:37:35.627Z,13.30
2022-12-24T14:40:04.292Z,13.20
2022-12-24T14:42:37.337Z,13.20
2022-12-24T14:45:13.652Z,13.00
2022-12-24T14:47:46.089Z,13.10
2022-12-24T14:50:32.061Z,13.10
2022-12-24T14:53:08.023Z,13.00
2022-12-24T14:55:42.054Z,12.90
2022-12-24T14:58:20.879Z,13.00
2022-12-24T15:00:50.973Z,12.90
2022-12-24T15:03:23.873Z,12.90
2022-12-24T15:05:53.641Z,12.80
2022-12-24T15:08:25.209Z,12.80
2022-12-24T15:10:55.024Z,12.80
2022-12-24T15:13:26.562Z,12.80
2022-12-24T15:15:56.872Z,12.80
2022-12-24T15:18:26.609Z,12.70
2022-12-24T15:21:01.994Z,12.70
2022-12-24T15:23:34.316Z,12.70
2022-12-24T15:26:09.775Z,12.70
2022-12-24T15:28:39.313Z,12.60
2022-12-24T15:31:13.113Z,12.70
2022-12-24T15:33:41.848Z,12.70
2022-12-24T15:36:10.428Z,12.80
2022-12-24T15:38:39.571Z,12.80
2022-12-24T15:41:09.771Z,12.80
2022-12-24T15:43:40.507Z,12.90
2022-12-24T15:46:10.303Z,12.80
2022-12-24T15:48:41.324Z,12.90
2022-12-24T15:51:09.701Z,12.90
2022-12-24T15:53:40.379Z,12.80
2022-12-24T15:56:10.545Z,12.90
2022-12-24T15:58:39.661Z,12.90
2022-12-24T16:01:26.398Z,13.10
2022-12-24T16:04:01.536Z,13.10
2022-12-24T16:06:49.997Z,13.10
2022-12-24T16:09:40.671Z,13.10
2022-12-24T16:12:14.265Z,13.10
2022-12-24T16:14:46.831Z,13.10
2022-12-24T16:17:19.558Z,13.10
2022-12-24T16:19:48.955Z,13.10
2022-12-24T16:22:35.316Z,13.10
2022-12-24T16:25:16.463Z,13.10
2022-12-24T16:27:44.944Z,13.20
2022-12-24T16:30:13.479Z,13.20
2022-12-24T16:32:43.419Z,13.10
2022-12-24T16:35:21.487Z,13.00
2022-12-24T16:37:49.849Z,13.00
2022-12-24T16:40:23.344Z,13.00
2022-12-24T16:43:15.906Z,12.90
2022-12-24T16:45:45.384Z,13.00
2022-12-24T16:48:18.628Z,13.10
2022-12-24T16:50:47.000Z,13.00
2022-12-24T16:53:17.826Z,13.00
2022-12-24T16:55:47.734Z,12.90
2022-12-24T16:58:16.910Z,12.90
2022-12-24T17:00:45.775Z,12.90
2022-12-24T17:03:15.792Z,12.90
2022-12-24T17:05:45.187Z,12.90
2022-12-24T17:08:13.901Z,12.90
2022-12-24T17:10:42.346Z,12.90
2022-12-24T17:13:10.662Z,12.90
2022-12-24T17:15:44.367Z,12.90
2022-12-24T17:18:12.774Z,12.90
2022-12-24T17:20:42.680Z,12.90
2022-12-24T17:23:11.052Z,12.90
2022-12-24T17:25:39.441Z,12.90
2022-12-24T17:28:07.867Z,12.90
2022-12-24T17:30:36.194Z,12.90
2022-12-24T17:33:09.363Z,12.90
2022-12-24T17:35:42.784Z,12.90
2022-12-24T17:38:11.253Z,12.90
2022-12-24T17:40:39.681Z,12.90
2022-12-24T17:43:08.065Z,12.90
2022-12-24T17:45:40.565Z,12.90
2022-12-24T17:48:08.957Z,12.90
2022-12-24T17:50:38.984Z,12.90
2022-12-24T17:53:08.751Z,12.90
2022-12-24T17:55:40.593Z,13.00
2022-12-24T17:58:08.975Z,13.10
2022-12-24T18:00:37.482Z,13.00
2022-12-24T18:03:06.015Z,12.90
2022-12-24T18:05:35.164Z,12.90
2022-12-24T18:08:03.572Z,12.90
2022-12-24T18:10:33.342Z,12.90
2022-12-24T18:13:01.786Z,12.80
2022-12-24T18:15:30.276Z,12.90
2022-12-24T18:17:59.343Z,12.90
2022-12-24T18:20:27.757Z,12.90
2022-12-24T18:22:56.205Z,12.90
2022-12-24T18:25:24.952Z,12.80
2022-12-24T18:27:54.781Z,12.80
2022-12-24T18:30:27.759Z,12.80
2022-12-24T18:32:56.421Z,12.90
2022-12-24T18:35:25.120Z,12.90
2022-12-24T18:37:53.551Z,12.90
2022-12-24T18:40:21.909Z,12.90
2022-12-24T18:42:50.251Z,12.80
2022-12-24T18:45:19.953Z,12.90
2022-12-24T18:47:48.299Z,12.90
2022-12-24T18:50:16.705Z,12.80
2022-12-24T18:52:45.023Z,12.80
2022-12-24T18:55:13.461Z,12.80
2022-12-24T18:57:41.779Z,12.80
2022-12-24T19:00:10.722Z,12.70
2022-12-24T19:02:40.628Z,12.70
2022-12-24T19:05:09.309Z,12.70
2022-12-24T19:07:37.708Z,12.70
2022-12-24T19:10:06.519Z,12.70
2022-12-24T19:12:37.565Z,12.70
2022-12-24T19:15:06.446Z,12.70
2022-12-24T19:17:34.867Z,12.70
2022-12-24T19:20:04.923Z,12.60
2022-12-24T19:22:33.387Z,12.60
2022-12-24T19:25:01.779Z,12.50
2022-12-24T19:27:30.102Z,12.40
2022-12-24T19:29:58.538Z,12.40
2022-12-24T19:32:26.897Z,12.30
2022-12-24T19:34:55.211Z,12.20
2022-12-24T19:37:25.063Z,12.20
2022-12-24T19:39:53.448Z,12.20
2022-12-24T19:42:21.808Z,12.20
2022-12-24T19:44:50.164Z,12.20
2022-12-24T19:47:18.526Z,12.20
2022-12-24T19:49:46.821Z,12.10
2022-12-24T19:52:15.279Z,12.10
2022-12-24T19:54:45.077Z,12.10
2022-12-24T19:57:13.491Z,12.10
2022-12-24T19:59:41.791Z,12.00
2022-12-24T20:02:11.026Z,12.00
2022-12-24T20:04:39.574Z,12.00
2022-12-24T20:07:07.974Z,12.00
2022-12-24T20:09:37.118Z,12.00
2022-12-24T20:12:07.423Z,12.00
2022-12-24T20:14:35.792Z,12.00
2022-12-24T20:17:04.323Z,12.00
2022-12-24T20:19:34.658Z,12.00
2022-12-24T20:22:03.303Z,12.00
2022-12-24T20:24:31.841Z,12.10
2022-12-24T20:27:00.304Z,12.10
2022-12-24T20:29:30.097Z,12.20
2022-12-24T20:31:58.652Z,12.20
2022-12-24T20:34:27.716Z,12.20
2022-12-24T20:36:56.294Z,12.20
2022-12-24T20:39:24.641Z,12.20
2022-12-24T20:41:53.015Z,12.20
2022-12-24T20:44:21.391Z,12.20
2022-12-24T20:46:51.133Z,12.20
2022-12-24T20:49:19.609Z,12.20
2022-12-24T20:51:47.923Z,12.20
2022-12-24T20:54:16.416Z,12.20
2022-12-24T20:56:44.745Z,12.20
2022-12-24T20:59:13.131Z,12.30
2022-12-24T21:01:41.732Z,12.20
2022-12-24T21:04:12.433Z,12.30
2022-12-24T21:06:40.781Z,12.20
2022-12-24T21:09:09.160Z,12.20
2022-12-24T21:11:55.289Z,12.30
2022-12-24T21:14:24.457Z,12.30
2022-12-24T21:16:53.395Z,12.20
2022-12-24T21:19:23.923Z,12.30
2022-12-24T21:21:52.572Z,12.20
2022-12-24T21:24:20.920Z,12.20
2022-12-24T21:26:49.343Z,12.20
2022-12-24T21:29:17.790Z,12.20
2022-12-24T21:31:46.239Z,12.10
2022-12-24T21:34:14.681Z,12.00
2022-12-24T21:36:44.455Z,12.00
2022-12-24T21:39:12.811Z,12.00
2022-12-24T21:41:41.225Z,12.00
2022-12-24T21:44:09.584Z,12.00
2022-12-24T21:46:38.074Z,12.00
2022-12-24T21:49:23.607Z,11.90
2022-12-24T21:51:53.336Z,11.90
2022-12-24T21:54:23.891Z,11.90
2022-12-24T21:57:09.890Z,11.80
2022-12-24T21:59:38.257Z,11.80
2022-12-24T22:02:07.085Z,11.80
2022-12-24T22:04:35.641Z,11.80
2022-12-24T22:07:22.757Z,11.80
2022-12-24T22:10:08.827Z,11.80
2022-12-24T22:12:37.206Z,11.80
2022-12-24T22:15:06.804Z,11.70
2022-12-24T22:17:35.161Z,11.80
2022-12-24T22:20:03.898Z,11.80
2022-12-24T22:22:33.680Z,11.80
2022-12-24T22:25:02.088Z,11.90
2022-12-24T22:27:30.511Z,11.90
2022-12-24T22:29:58.952Z,11.90
2022-12-24T22:32:27.394Z,11.90
2022-12-24T22:34:55.794Z,11.90
2022-12-24T22:37:24.182Z,12.00
2022-12-24T22:39:53.878Z,11.90
2022-12-24T22:42:22.227Z,11.90
2022-12-24T22:44:50.498Z,11.80
2022-12-24T22:47:18.928Z,11.80
2022-12-24T22:49:49.082Z,11.80
2022-12-24T22:52:17.485Z,11.80
2022-12-24T22:54:45.902Z,11.90
2022-12-24T22:57:15.686Z,11.90
2022-12-24T22:59:44.180Z,11.90
2022-12-24T23:02:13.466Z,11.90
2022-12-24T23:04:42.787Z,11.80
2022-12-24T23:07:12.502Z,11.80
2022-12-24T23:09:41.521Z,11.80
2022-12-24T23:12:09.934Z,11.80
2022-12-24T23:14:56.807Z,11.80
2022-12-24T23:17:25.090Z,11.70
2022-12-24T23:19:53.398Z,11.70
2022-12-24T23:22:22.023Z,11.60
2022-12-24T23:24:50.384Z,11.50
2022-12-24T23:27:18.720Z,11.50
2022-12-24T23:29:48.550Z,11.50
2022-12-24T23:32:16.939Z,11.50
2022-12-24T23:34:45.292Z,11.50
2022-12-24T23:37:13.616Z,11.40
2022-12-24T23:39:42.098Z,11.40
2022-12-24T23:42:10.766Z,11.40
2022-12-24T23:44:39.119Z,11.40
2022-12-24T23:47:08.877Z,11.40
2022-12-24T23:49:37.280Z,11.40
2022-12-24T23:52:06.112Z,11.40
2022-12-24T23:54:34.470Z,11.40
2022-12-24T23:57:02.921Z,11.30
2022-12-24T23:59:33.269Z,11.30
